Time;durP1;ratioP1;P1;durP2;ratioP2;P2;SDS_P1;SDS_P2;PMS_P1;PMS_P2;Temp;Humidity;BMP_temperature;BMP_pressure;BME280_temperature;BME280_humidity;BME280_pressure;Samples;Min_cycle;Max_cycle;Signal;HPM_P1;HPM_P2
2023/02/08 00:00:50;;;;;;;107.28;42.55;;;-2.70;99.90;;;;;;5067831;28;20317;-38
2023/02/08 00:03:17;;;;;;;119.20;46.40;;;-2.70;99.90;;;;;;5067548;28;20070;-37
2023/02/08 00:05:42;;;;;;;115.30;44.67;;;-2.70;99.90;;;;;;5067499;28;20056;-38
2023/02/08 00:08:08;;;;;;;113.50;41.15;;;-2.70;99.90;;;;;;5066346;28;20489;-38
2023/02/08 00:10:34;;;;;;;121.78;46.60;;;-2.70;99.90;;;;;;5056226;28;20071;-38
2023/02/08 00:12:59;;;;;;;122.20;48.03;;;-2.80;99.90;;;;;;5045556;28;20443;-37
2023/02/08 00:15:25;;;;;;;122.68;45.22;;;-2.80;99.90;;;;;;5046700;28;20033;-37
2023/02/08 00:17:51;;;;;;;119.13;46.30;;;-2.80;99.90;;;;;;5047034;28;20103;-38
2023/02/08 00:20:17;;;;;;;118.15;45.35;;;-2.80;99.90;;;;;;5055893;28;20025;-37
2023/02/08 00:22:42;;;;;;;127.38;45.08;;;-2.90;99.90;;;;;;5067414;28;20066;-38
2023/02/08 00:25:08;;;;;;;127.93;44.92;;;-2.90;99.90;;;;;;5070230;28;20380;-38
2023/02/08 00:27:34;;;;;;;137.98;48.42;;;-2.90;99.90;;;;;;5071273;28;20024;-38
2023/02/08 00:30:00;;;;;;;122.35;44.75;;;-3.00;99.90;;;;;;5071299;28;20020;-38
2023/02/08 00:32:25;;;;;;;124.13;46.50;;;-3.00;99.90;;;;;;5070573;28;20040;-37
2023/02/08 00:34:51;;;;;;;124.88;45.95;;;-3.00;99.90;;;;;;5070427;28;20035;-37
2023/02/08 00:37:16;;;;;;;127.38;47.75;;;-3.00;99.90;;;;;;5071126;28;20107;-38
2023/02/08 00:39:42;;;;;;;110.25;41.65;;;-3.00;99.90;;;;;;5066348;28;20033;-37
2023/02/08 00:42:07;;;;;;;116.47;44.38;;;-3.10;99.90;;;;;;5050523;28;20032;-38
2023/02/08 00:44:33;;;;;;;119.53;42.40;;;-3.10;99.90;;;;;;5049213;28;20025;-38
2023/02/08 00:46:59;;;;;;;120.78;45.45;;;-3.10;99.90;;;;;;5050321;28;20047;-38
2023/02/08 00:49:24;;;;;;;121.90;45.13;;;-3.10;99.90;;;;;;5058552;28;20063;-37
2023/02/08 00:51:50;;;;;;;124.38;48.17;;;-3.10;99.90;;;;;;5058956;28;20086;-38
2023/02/08 00:54:18;;;;;;;130.45;48.90;;;-3.10;99.90;;;;;;5066847;28;20033;-39
2023/02/08 00:56:43;;;;;;;126.13;49.83;;;-3.10;99.90;;;;;;5050204;28;20029;-37
2023/02/08 00:59:09;;;;;;;125.43;46.53;;;-3.10;99.90;;;;;;5050609;28;20087;-37
2023/02/08 01:01:35;;;;;;;141.55;50.78;;;-3.10;99.90;;;;;;5049802;28;20028;-37
2023/02/08 01:04:01;;;;;;;137.15;50.97;;;-3.00;99.90;;;;;;5050324;28;20070;-37
2023/02/08 01:06:26;;;;;;;132.68;49.22;;;-3.00;99.90;;;;;;5049652;28;20075;-37
2023/02/08 01:08:52;;;;;;;130.43;48.95;;;-3.00;99.90;;;;;;5050315;28;20025;-37
2023/02/08 01:11:21;;;;;;;129.13;49.08;;;-3.00;99.90;;;;;;5051072;28;20029;-38
2023/02/08 01:13:48;;;;;;;137.48;49.20;;;-3.10;99.90;;;;;;5048692;28;20040;-37
2023/02/08 01:16:15;;;;;;;132.35;47.70;;;-3.10;99.90;;;;;;5049222;28;20031;-38
2023/02/08 01:18:42;;;;;;;136.98;52.15;;;-3.10;99.90;;;;;;5053827;28;20024;-37
2023/02/08 01:21:11;;;;;;;143.55;52.10;;;-3.10;99.90;;;;;;5053860;28;20116;-37
2023/02/08 01:23:37;;;;;;;137.32;47.97;;;-3.00;99.90;;;;;;5046654;28;20537;-37
2023/02/08 01:26:04;;;;;;;129.65;48.58;;;-3.00;99.90;;;;;;5048596;28;20096;-37
2023/02/08 01:28:29;;;;;;;134.57;47.03;;;-3.00;99.90;;;;;;5050085;28;20060;-37
2023/02/08 01:30:55;;;;;;;125.45;47.78;;;-3.00;99.90;;;;;;5050073;28;20444;-37
2023/02/08 01:33:21;;;;;;;135.88;49.75;;;-3.00;99.90;;;;;;5049589;28;20414;-38
2023/02/08 01:35:50;;;;;;;124.68;47.67;;;-3.10;99.90;;;;;;5049068;28;20017;-38
2023/02/08 01:38:16;;;;;;;142.70;49.20;;;-3.10;99.90;;;;;;5049493;28;20486;-38
2023/02/08 01:40:41;;;;;;;140.10;50.92;;;-3.10;99.90;;;;;;5050713;28;20021;-38
2023/02/08 01:43:34;;;;;;;130.32;48.78;;;-3.00;99.90;;;;;;5049701;28;20032;-37
2023/02/08 01:46:00;;;;;;;142.07;52.13;;;-3.00;99.90;;;;;;5047927;28;20178;-38
2023/02/08 01:48:38;;;;;;;128.82;47.85;;;-3.10;99.90;;;;;;5049556;28;20107;-38
2023/02/08 01:51:06;;;;;;;127.85;48.22;;;-3.10;99.90;;;;;;5061029;28;20103;-38
2023/02/08 01:53:33;;;;;;;143.93;50.70;;;-3.10;99.90;;;;;;5067996;28;20390;-38
2023/02/08 01:56:02;;;;;;;126.45;48.25;;;-3.10;99.90;;;;;;5068876;28;20249;-38
2023/02/08 01:58:30;;;;;;;128.88;49.38;;;-3.10;99.90;;;;;;5068774;28;20025;-37
2023/02/08 02:00:56;;;;;;;126.20;46.00;;;-3.10;99.90;;;;;;5068877;28;20020;-37
2023/02/08 02:03:23;;;;;;;129.45;51.03;;;-3.20;99.90;;;;;;5067615;28;20035;-38
2023/02/08 02:05:54;;;;;;;132.10;48.60;;;-3.20;99.90;;;;;;5067037;28;20043;-38
2023/02/08 02:08:20;;;;;;;122.03;45.05;;;-3.20;99.90;;;;;;5069309;28;20027;-37
2023/02/08 02:10:48;;;;;;;129.07;47.10;;;-3.20;99.90;;;;;;5055895;28;20021;-37
2023/02/08 02:13:21;;;;;;;134.52;49.10;;;-3.20;99.90;;;;;;5048855;28;20116;-37
2023/02/08 02:15:48;;;;;;;118.15;44.58;;;-3.30;99.90;;;;;;5048458;28;20025;-38
2023/02/08 02:18:27;;;;;;;123.32;44.75;;;-3.30;99.90;;;;;;5048513;28;20470;-37
2023/02/08 02:21:32;;;;;;;136.70;48.83;;;-3.30;99.90;;;;;;5060489;28;20112;-37
2023/02/08 02:24:17;;;;;;;122.78;44.38;;;-3.30;99.90;;;;;;5045571;28;20221;-38
2023/02/08 02:27:06;;;;;;;127.13;48.10;;;-3.30;99.90;;;;;;5068394;28;20032;-37
2023/02/08 02:29:44;;;;;;;145.20;53.45;;;-3.30;99.90;;;;;;5068777;28;20394;-37
2023/02/08 02:32:43;;;;;;;115.03;45.95;;;-3.30;99.90;;;;;;5067950;28;20024;-38
2023/02/08 02:35:29;;;;;;;128.57;46.50;;;-3.30;99.90;;;;;;5066347;28;20153;-38
2023/02/08 02:38:17;;;;;;;135.27;50.60;;;-3.30;99.90;;;;;;5068505;28;20060;-38
2023/02/08 02:40:55;;;;;;;125.97;45.58;;;-3.40;99.90;;;;;;5055769;28;20481;-38
2023/02/08 02:43:53;;;;;;;133.32;46.40;;;-3.40;99.90;;;;;;5048552;28;20389;-38
2023/02/08 02:46:39;;;;;;;121.82;43.40;;;-3.40;99.90;;;;;;5043839;28;20052;-38
2023/02/08 02:49:26;;;;;;;134.05;46.28;;;-3.40;99.90;;;;;;5055445;28;20024;-37
2023/02/08 02:52:11;;;;;;;128.40;45.47;;;-3.40;99.90;;;;;;5055252;28;20029;-38
2023/02/08 02:54:49;;;;;;;126.35;50.38;;;-3.40;99.90;;;;;;5068200;28;20119;-48
2023/02/08 02:57:23;;;;;;;124.10;45.75;;;-3.40;99.90;;;;;;5067148;28;20112;-47
2023/02/08 02:59:49;;;;;;;125.50;46.50;;;-3.40;99.90;;;;;;5066803;28;20050;-49
2023/02/08 03:02:14;;;;;;;121.85;47.30;;;-3.40;99.90;;;;;;5047458;28;20463;-47
2023/02/08 03:04:40;;;;;;;116.88;44.22;;;-3.50;99.90;;;;;;5047763;28;20021;-47
2023/02/08 03:07:15;;;;;;;134.02;47.25;;;-3.50;99.90;;;;;;5048095;28;20017;-47
2023/02/08 03:09:55;;;;;;;139.38;50.70;;;-3.50;99.90;;;;;;5049401;28;20025;-49
2023/02/08 03:12:27;;;;;;;132.82;49.38;;;-3.50;99.90;;;;;;5046649;28;20037;-48
2023/02/08 03:15:01;;;;;;;123.28;45.80;;;-3.60;99.90;;;;;;5047580;28;20127;-49
2023/02/08 03:17:56;;;;;;;138.50;48.10;;;-3.60;99.90;;;;;;5046029;28;20029;-47
2023/02/08 03:20:27;;;;;;;125.18;45.67;;;-3.50;99.90;;;;;;5051104;28;20106;-49
2023/02/08 03:23:07;;;;;;;132.65;45.58;;;-3.60;99.90;;;;;;5067211;28;20028;-47
2023/02/08 03:25:53;;;;;;;130.15;50.65;;;-3.60;99.90;;;;;;5046411;28;20017;-47
2023/02/08 03:28:37;;;;;;;128.85;48.40;;;-3.60;99.90;;;;;;5044772;28;20391;-47
2023/02/08 03:31:09;;;;;;;132.75;47.80;;;-3.60;99.90;;;;;;5047607;28;20145;-47
2023/02/08 03:33:43;;;;;;;124.35;45.20;;;-3.60;99.90;;;;;;5046331;28;20123;-48
2023/02/08 03:36:19;;;;;;;122.70;44.38;;;-3.60;99.90;;;;;;5047145;28;20021;-47
2023/02/08 03:38:47;;;;;;;119.03;44.28;;;-3.70;99.90;;;;;;5047813;28;20127;-50
2023/02/08 03:41:19;;;;;;;147.30;50.10;;;-3.70;99.90;;;;;;5048961;28;20021;-47
2023/02/08 03:44:05;;;;;;;130.80;44.75;;;-3.70;99.90;;;;;;5046452;28;20233;-47
2023/02/08 03:46:35;;;;;;;120.47;44.67;;;-3.70;99.90;;;;;;5047051;28;20033;-47
2023/02/08 03:49:10;;;;;;;132.32;47.92;;;-3.70;99.90;;;;;;5052678;28;20457;-47
2023/02/08 03:51:38;;;;;;;125.45;45.45;;;-3.70;99.90;;;;;;5057668;28;20434;-47
2023/02/08 03:54:07;;;;;;;125.32;47.30;;;-3.70;99.90;;;;;;5067672;28;20035;-46
2023/02/08 03:56:58;;;;;;;121.88;43.63;;;-3.70;99.90;;;;;;5067132;28;20528;-47
2023/02/08 03:59:28;;;;;;;122.97;44.65;;;-3.70;99.90;;;;;;5071188;28;20081;-48
2023/02/08 04:01:58;;;;;;;87.63;33.95;;;-3.70;99.90;;;;;;5061091;28;20028;-46
2023/02/08 04:04:28;;;;;;;131.07;46.33;;;-3.70;99.90;;;;;;5049505;28;20079;-47
2023/02/08 04:06:53;;;;;;;120.18;44.13;;;-3.80;99.90;;;;;;5048612;28;20036;-46
2023/02/08 04:09:19;;;;;;;112.53;43.28;;;-3.80;99.90;;;;;;5051463;28;20406;-46
2023/02/08 04:11:44;;;;;;;123.50;43.60;;;-3.80;99.90;;;;;;5051025;28;20035;-47
2023/02/08 04:14:10;;;;;;;111.43;41.30;;;-3.90;99.90;;;;;;5051663;28;20032;-47
2023/02/08 04:16:35;;;;;;;125.50;45.10;;;-3.80;99.90;;;;;;5050572;28;20036;-47
2023/02/08 04:19:01;;;;;;;125.10;45.38;;;-3.80;99.90;;;;;;5057309;28;20578;-47
2023/02/08 04:21:26;;;;;;;128.07;44.63;;;-3.80;99.90;;;;;;5062742;28;20062;-46
2023/02/08 04:23:52;;;;;;;113.30;43.35;;;-3.80;99.90;;;;;;5070776;28;20020;-47
2023/02/08 04:26:17;;;;;;;105.13;42.47;;;-3.80;99.90;;;;;;5070462;28;20025;-46
2023/02/08 04:28:43;;;;;;;109.03;44.30;;;-3.90;99.90;;;;;;5071131;28;20029;-47
2023/02/08 04:31:09;;;;;;;112.55;44.03;;;-3.80;99.90;;;;;;5069621;28;20232;-48
2023/02/08 04:33:34;;;;;;;117.20;42.53;;;-3.80;99.90;;;;;;5048584;28;20028;-47
2023/02/08 04:36:00;;;;;;;112.05;42.58;;;-3.80;99.90;;;;;;5049096;28;20103;-47
2023/02/08 04:38:25;;;;;;;113.70;42.88;;;-3.90;99.90;;;;;;5049242;28;20036;-48
2023/02/08 04:40:51;;;;;;;121.40;41.70;;;-3.90;99.90;;;;;;5051658;28;20382;-48
2023/02/08 04:43:16;;;;;;;117.68;44.25;;;-3.90;99.90;;;;;;5050807;28;20049;-47
2023/02/08 04:45:42;;;;;;;104.70;38.83;;;-3.90;99.90;;;;;;5050328;28;20037;-48
2023/02/08 04:48:08;;;;;;;115.05;41.00;;;-3.90;99.90;;;;;;5050299;28;20454;-48
2023/02/08 04:50:34;;;;;;;116.95;43.05;;;-3.90;99.90;;;;;;5050830;28;20518;-47
2023/02/08 04:52:59;;;;;;;112.00;42.38;;;-3.90;99.90;;;;;;5050426;28;20055;-47
2023/02/08 04:55:25;;;;;;;106.75;41.55;;;-3.90;99.90;;;;;;5048724;28;20509;-48
2023/02/08 04:57:50;;;;;;;119.53;42.83;;;-3.90;99.90;;;;;;5050232;28;20029;-46
2023/02/08 05:00:17;;;;;;;111.25;43.47;;;-4.00;99.90;;;;;;5050397;28;20124;-46
2023/02/08 05:02:43;;;;;;;105.63;40.38;;;-3.90;99.90;;;;;;5053003;28;20013;-47
2023/02/08 05:05:09;;;;;;;103.72;39.55;;;-3.90;99.90;;;;;;5064393;28;20025;-48
2023/02/08 05:07:35;;;;;;;105.07;40.45;;;-3.90;99.90;;;;;;5070272;28;20172;-47
2023/02/08 05:10:00;;;;;;;99.57;37.00;;;-3.90;99.90;;;;;;5062981;28;20063;-46
2023/02/08 05:12:26;;;;;;;94.05;35.65;;;-3.90;99.90;;;;;;5049899;28;20041;-46
2023/02/08 05:14:51;;;;;;;99.00;36.50;;;-3.90;99.90;;;;;;5049794;28;20033;-48
2023/02/08 05:17:17;;;;;;;105.30;37.33;;;-3.90;99.90;;;;;;5049396;28;20060;-48
2023/02/08 05:19:42;;;;;;;102.93;35.90;;;-3.80;99.90;;;;;;5047427;28;20032;-47
2023/02/08 05:22:08;;;;;;;102.38;36.65;;;-3.90;99.90;;;;;;5049774;28;20060;-47
2023/02/08 05:24:33;;;;;;;103.05;39.28;;;-3.90;99.90;;;;;;5049749;28;20162;-47
2023/02/08 05:26:59;;;;;;;93.53;36.75;;;-3.90;99.90;;;;;;5049615;28;20017;-46
2023/02/08 05:29:25;;;;;;;91.47;35.28;;;-3.80;99.90;;;;;;5048350;28;20040;-47
2023/02/08 05:31:50;;;;;;;105.15;37.25;;;-3.90;99.90;;;;;;5049591;28;20021;-47
2023/02/08 05:34:16;;;;;;;103.60;37.65;;;-3.90;99.90;;;;;;5047975;28;20021;-46
2023/02/08 05:36:41;;;;;;;102.00;38.35;;;-3.90;99.90;;;;;;5049382;28;20031;-47
2023/02/08 05:39:07;;;;;;;97.65;37.97;;;-3.90;99.90;;;;;;5050179;28;20685;-45
2023/02/08 05:41:32;;;;;;;100.00;36.30;;;-3.90;99.90;;;;;;5050358;28;20069;-46
2023/02/08 05:43:58;;;;;;;107.72;38.03;;;-3.90;99.90;;;;;;5049410;28;20469;-48
2023/02/08 05:46:23;;;;;;;97.10;37.47;;;-3.90;99.90;;;;;;5048642;28;20102;-47
2023/02/08 05:48:49;;;;;;;105.65;38.85;;;-3.90;99.90;;;;;;5054276;28;20021;-48
2023/02/08 05:51:14;;;;;;;112.32;39.42;;;-4.00;99.90;;;;;;5059346;28;20028;-46
2023/02/08 05:53:40;;;;;;;105.50;36.38;;;-3.90;99.90;;;;;;5069188;28;20394;-46
2023/02/08 05:56:06;;;;;;;98.35;35.17;;;-4.00;99.90;;;;;;5068894;28;20070;-46
2023/02/08 05:58:32;;;;;;;101.07;36.67;;;-4.00;99.90;;;;;;5050542;28;20033;-47
2023/02/08 06:00:58;;;;;;;96.88;35.72;;;-4.00;99.90;;;;;;5047358;28;20545;-50
2023/02/08 06:03:24;;;;;;;89.15;37.92;;;-4.10;99.90;;;;;;5049208;28;20029;-47
2023/02/08 06:05:49;;;;;;;109.57;36.92;;;-4.00;99.90;;;;;;5048775;28;20483;-47
2023/02/08 06:08:15;;;;;;;101.72;37.15;;;-4.10;99.90;;;;;;5049091;28;20094;-49
2023/02/08 06:10:40;;;;;;;95.03;36.28;;;-4.10;99.90;;;;;;5049845;28;20501;-47
2023/02/08 06:13:06;;;;;;;94.93;36.50;;;-4.10;99.90;;;;;;5048647;28;20416;-48
2023/02/08 06:15:31;;;;;;;90.63;35.13;;;-4.10;99.90;;;;;;5047116;28;20111;-48
2023/02/08 06:17:57;;;;;;;107.47;36.70;;;-4.10;99.90;;;;;;5048670;28;20432;-47
2023/02/08 06:20:23;;;;;;;101.88;36.28;;;-4.10;99.90;;;;;;5058297;28;20033;-48
2023/02/08 06:22:48;;;;;;;96.72;35.72;;;-4.10;99.90;;;;;;5068729;28;20231;-47
2023/02/08 06:25:14;;;;;;;91.22;34.92;;;-4.10;99.90;;;;;;5067983;28;20490;-47
2023/02/08 06:27:39;;;;;;;94.80;36.13;;;-4.10;99.90;;;;;;5068726;28;20030;-48
2023/02/08 06:30:05;;;;;;;103.07;36.85;;;-4.10;99.90;;;;;;5068793;28;20032;-46
2023/02/08 06:32:31;;;;;;;104.55;35.50;;;-4.00;99.90;;;;;;5068646;28;20058;-49
2023/02/08 06:34:56;;;;;;;100.03;35.88;;;-4.00;99.90;;;;;;5067851;28;20028;-48
2023/02/08 06:37:22;;;;;;;105.68;38.20;;;-4.00;99.90;;;;;;5068647;28;20058;-47
2023/02/08 06:39:47;;;;;;;93.80;32.85;;;-4.00;99.90;;;;;;5063263;28;20095;-47
2023/02/08 06:42:13;;;;;;;101.72;37.92;;;-4.00;99.90;;;;;;5048188;28;20032;-47
2023/02/08 06:44:38;;;;;;;105.45;36.28;;;-4.00;99.90;;;;;;5046208;28;20029;-46
2023/02/08 06:47:04;;;;;;;100.95;36.05;;;-4.00;99.90;;;;;;5048214;28;20272;-46
2023/02/08 06:49:30;;;;;;;109.22;38.00;;;-4.00;99.90;;;;;;5056473;28;20028;-48
2023/02/08 06:51:55;;;;;;;95.13;36.15;;;-4.00;99.90;;;;;;5062665;28;20107;-48
2023/02/08 06:54:21;;;;;;;101.60;36.22;;;-4.00;99.90;;;;;;5053305;28;20079;-46
2023/02/08 06:56:46;;;;;;;103.68;37.42;;;-4.00;99.90;;;;;;5048001;28;20040;-47
2023/02/08 06:59:12;;;;;;;97.47;35.60;;;-4.00;99.90;;;;;;5048233;28;20030;-47
2023/02/08 07:01:37;;;;;;;94.18;36.65;;;-4.00;99.90;;;;;;5046491;28;20028;-48
2023/02/08 07:04:03;;;;;;;101.05;36.35;;;-4.00;99.90;;;;;;5048109;28;20518;-48
2023/02/08 07:06:29;;;;;;;92.97;35.72;;;-3.90;99.90;;;;;;5047707;28;20552;-47
2023/02/08 07:08:54;;;;;;;94.68;35.15;;;-3.90;99.90;;;;;;5048217;28;20017;-47
2023/02/08 07:11:20;;;;;;;101.25;36.70;;;-3.90;99.90;;;;;;5048983;28;20410;-47
2023/02/08 07:13:48;;;;;;;104.75;37.22;;;-3.90;99.90;;;;;;5045186;28;20035;-47
2023/02/08 07:16:15;;;;;;;100.93;38.88;;;-3.80;99.90;;;;;;5047569;28;20390;-48
2023/02/08 07:18:40;;;;;;;106.50;39.38;;;-3.90;99.90;;;;;;5048109;28;20151;-46
2023/02/08 07:21:06;;;;;;;92.95;36.55;;;-3.90;99.90;;;;;;5045407;28;20029;-47
2023/02/08 07:23:32;;;;;;;102.85;36.92;;;-3.90;99.90;;;;;;5048839;28;20021;-46
2023/02/08 07:26:09;;;;;;;100.47;37.30;;;-3.90;99.90;;;;;;5045982;28;20025;-46
2023/02/08 07:28:35;;;;;;;112.63;41.50;;;-3.90;99.90;;;;;;5046089;28;20499;-48
2023/02/08 07:31:09;;;;;;;104.10;37.53;;;-3.90;99.90;;;;;;5047479;28;20055;-46
2023/02/08 07:33:35;;;;;;;104.25;38.63;;;-3.90;99.90;;;;;;5043109;28;20455;-48
2023/02/08 07:36:04;;;;;;;110.78;40.40;;;-3.90;99.90;;;;;;5046597;28;20167;-46
2023/02/08 07:38:29;;;;;;;102.25;38.70;;;-3.90;99.90;;;;;;5047738;28;20029;-46
2023/02/08 07:41:04;;;;;;;100.28;39.00;;;-3.90;99.90;;;;;;5049422;28;20039;-49
2023/02/08 07:43:29;;;;;;;95.70;36.83;;;-3.90;99.90;;;;;;5048013;28;20031;-52
2023/02/08 07:45:55;;;;;;;103.35;35.63;;;-3.90;99.90;;;;;;5046322;28;20033;-46
2023/02/08 07:48:20;;;;;;;98.72;37.13;;;-3.90;99.90;;;;;;5046572;28;20056;-47
2023/02/08 07:50:46;;;;;;;101.10;36.55;;;-3.90;99.90;;;;;;5047571;28;20017;-46
2023/02/08 07:53:12;;;;;;;104.15;37.75;;;-3.80;99.90;;;;;;5046519;28;20479;-46
2023/02/08 07:55:37;;;;;;;104.28;37.15;;;-3.80;99.90;;;;;;5046904;28;20393;-46
2023/02/08 07:58:03;;;;;;;103.28;38.15;;;-3.70;99.90;;;;;;5047543;28;20021;-47
2023/02/08 08:00:28;;;;;;;101.35;39.35;;;-3.70;99.90;;;;;;5047590;28;20021;-46
2023/02/08 08:02:54;;;;;;;110.97;37.72;;;-3.60;99.90;;;;;;5047529;28;20441;-46
2023/02/08 08:05:20;;;;;;;101.40;39.15;;;-3.60;99.90;;;;;;5045828;28;20021;-47
2023/02/08 08:07:46;;;;;;;111.68;40.30;;;-3.50;99.90;;;;;;5047974;28;20458;-46
2023/02/08 08:10:11;;;;;;;101.00;38.80;;;-3.50;99.90;;;;;;5048958;28;20101;-48
2023/02/08 08:12:37;;;;;;;106.45;36.30;;;-3.50;99.90;;;;;;5047616;28;20148;-46
2023/02/08 08:15:03;;;;;;;101.00;38.65;;;-3.40;99.90;;;;;;5047122;28;20306;-46
2023/02/08 08:17:28;;;;;;;104.47;38.03;;;-3.30;99.90;;;;;;5047455;28;20052;-47
2023/02/08 08:19:54;;;;;;;99.20;39.65;;;-3.20;99.90;;;;;;5043962;28;20018;-49
2023/02/08 08:22:19;;;;;;;102.68;41.78;;;-3.20;99.90;;;;;;5047433;28;20040;-47
2023/02/08 08:24:45;;;;;;;109.95;38.67;;;-3.10;99.90;;;;;;5046958;28;20505;-48
2023/02/08 08:27:10;;;;;;;105.40;39.40;;;-3.10;99.90;;;;;;5047412;28;20410;-45
2023/02/08 08:29:37;;;;;;;95.90;36.97;;;-3.00;99.90;;;;;;5047454;28;20032;-47
2023/02/08 08:32:03;;;;;;;109.15;40.78;;;-3.00;99.90;;;;;;5047514;28;20048;-47
2023/02/08 08:34:30;;;;;;;106.28;39.85;;;-2.90;99.90;;;;;;5047349;28;20036;-47
2023/02/08 08:36:57;;;;;;;108.68;38.17;;;-2.90;99.90;;;;;;5047674;28;20025;-47
2023/02/08 08:39:23;;;;;;;94.40;40.60;;;-2.80;99.90;;;;;;5047854;28;20028;-46
2023/02/08 08:41:48;;;;;;;98.30;39.13;;;-2.70;99.90;;;;;;5047723;28;20624;-47
2023/02/08 08:44:15;;;;;;;94.65;38.60;;;-2.60;99.90;;;;;;5048300;28;20032;-47
2023/02/08 08:46:40;;;;;;;101.63;38.70;;;-2.60;99.90;;;;;;5050687;28;20037;-49
2023/02/08 08:49:06;;;;;;;108.00;42.53;;;-2.50;99.90;;;;;;5058243;28;20134;-47
2023/02/08 08:51:34;;;;;;;111.63;40.55;;;-2.40;99.90;;;;;;5063092;28;20366;-47
2023/02/08 08:54:00;;;;;;;107.93;42.20;;;-2.40;99.90;;;;;;5071258;28;20040;-47
2023/02/08 08:56:26;;;;;;;98.43;39.38;;;-2.30;99.90;;;;;;5070843;28;20081;-47
2023/02/08 08:58:51;;;;;;;96.00;38.30;;;-2.20;99.90;;;;;;5071248;28;20296;-46
2023/02/08 09:01:17;;;;;;;97.45;40.67;;;-2.20;99.90;;;;;;5069249;28;20385;-49
2023/02/08 09:03:42;;;;;;;100.63;40.15;;;-2.10;99.90;;;;;;5070816;28;20029;-48
2023/02/08 09:06:08;;;;;;;96.43;37.55;;;-2.00;99.90;;;;;;5070252;28;20024;-46
2023/02/08 09:08:34;;;;;;;92.80;41.28;;;-1.90;99.90;;;;;;5071023;28;20496;-46
2023/02/08 09:11:08;;;;;;;105.25;40.70;;;-1.90;99.90;;;;;;5055817;28;20028;-46
2023/02/08 09:13:33;;;;;;;88.22;37.13;;;-1.80;99.90;;;;;;5049197;28;20033;-48
2023/02/08 09:16:07;;;;;;;92.45;38.40;;;-1.70;99.90;;;;;;5050064;28;20516;-47
2023/02/08 09:18:33;;;;;;;91.65;37.15;;;-1.70;99.90;;;;;;5053063;28;20592;-48
2023/02/08 09:21:04;;;;;;;92.03;39.50;;;-1.60;99.90;;;;;;5061865;28;20091;-48
2023/02/08 09:23:30;;;;;;;97.35;40.28;;;-1.50;99.90;;;;;;5070366;28;20021;-47
2023/02/08 09:25:55;;;;;;;90.32;38.08;;;-1.40;99.90;;;;;;5070184;28;20028;-46
2023/02/08 09:28:21;;;;;;;97.47;42.33;;;-1.30;99.90;;;;;;5070191;28;20024;-47
2023/02/08 09:30:46;;;;;;;104.50;41.60;;;-1.20;99.90;;;;;;5068732;28;20547;-46
2023/02/08 09:33:12;;;;;;;105.03;43.35;;;-1.10;99.90;;;;;;5069973;28;20060;-48
2023/02/08 09:35:37;;;;;;;98.45;40.17;;;-1.10;99.90;;;;;;5065901;28;20020;-47
2023/02/08 09:38:04;;;;;;;89.35;38.40;;;-0.90;99.90;;;;;;5050054;28;20079;-46
2023/02/08 09:41:01;;;;;;;91.47;38.20;;;-0.80;99.90;;;;;;5051114;28;20327;-50
2023/02/08 09:43:40;;;;;;;85.60;38.25;;;-0.60;99.90;;;;;;5049918;28;20036;-49
2023/02/08 09:46:18;;;;;;;88.32;38.95;;;-0.50;99.90;;;;;;5049640;28;20029;-47
2023/02/08 09:48:45;;;;;;;90.63;39.55;;;-0.30;99.90;;;;;;5049877;28;20501;-48
2023/02/08 09:51:40;;;;;;;80.53;33.80;;;-0.20;99.90;;;;;;5048221;28;20624;-48
2023/02/08 09:54:28;;;;;;;80.13;34.42;;;0.00;99.90;;;;;;5049960;28;20037;-46
2023/02/08 09:56:55;;;;;;;74.15;34.58;;;0.30;99.90;;;;;;5049265;28;20031;-46
2023/02/08 09:59:27;;;;;;;82.38;34.03;;;0.50;99.90;;;;;;5049624;28;20102;-48
2023/02/08 10:01:59;;;;;;;74.90;33.35;;;0.70;99.90;;;;;;5049395;28;20028;-47
2023/02/08 10:04:51;;;;;;;55.30;30.48;;;1.10;99.90;;;;;;5047959;28;20025;-50
2023/02/08 10:07:16;;;;;;;48.38;24.55;;;1.60;99.90;;;;;;5057963;28;20104;-47
2023/02/08 10:09:42;;;;;;;38.65;20.80;;;3.30;99.90;;;;;;5056358;28;20108;-48
2023/02/08 10:12:11;;;;;;;28.35;16.30;;;5.70;99.90;;;;;;5049403;28;20375;-47
2023/02/08 10:15:05;;;;;;;27.48;16.25;;;8.10;90.80;;;;;;5049303;28;20017;-47
2023/02/08 10:17:46;;;;;;;21.38;13.43;;;10.20;84.00;;;;;;5049312;28;20033;-46
2023/02/08 10:20:24;;;;;;;;;;;12.70;68.90;;;;;;5049251;28;20540;-45
2023/02/08 10:23:19;;;;;;;21.45;12.32;;;11.30;58.80;;;;;;5049338;28;19912;-48
2023/02/08 10:26:11;;;;;;;20.90;13.43;;;13.20;59.00;;;;;;5049055;28;20451;-46
2023/02/08 10:29:01;;;;;;;18.38;11.05;;;14.50;54.00;;;;;;5049124;28;20426;-49
2023/02/08 10:31:29;;;;;;;17.13;11.82;;;15.20;55.50;;;;;;5048079;28;20108;-48
2023/02/08 10:34:18;;;;;;;17.75;12.65;;;16.40;50.60;;;;;;5042242;28;20013;-45
2023/02/08 10:36:43;;;;;;;17.95;12.18;;;14.80;51.00;;;;;;5047665;28;20028;-48
2023/02/08 10:39:17;;;;;;;19.73;12.23;;;16.10;51.50;;;;;;5049045;28;20033;-46
2023/02/08 10:41:44;;;;;;;19.90;12.52;;;16.70;49.20;;;;;;5040072;28;20021;-46
2023/02/08 10:44:40;;;;;;;26.48;12.93;;;17.70;48.60;;;;;;5048951;28;20021;-38
2023/02/08 10:47:38;;;;;;;20.65;12.68;;;18.30;46.70;;;;;;5047277;28;20039;-38
2023/02/08 10:50:21;;;;;;;19.10;12.70;;;17.50;44.10;;;;;;5046677;28;20114;-38
2023/02/08 10:52:47;;;;;;;15.25;11.45;;;18.40;45.10;;;;;;5048802;28;20029;-38
2023/02/08 10:55:15;;;;;;;18.05;11.43;;;18.30;45.90;;;;;;5048122;28;20112;-38
2023/02/08 10:57:42;;;;;;;19.85;12.02;;;18.30;48.50;;;;;;5044150;28;20177;-38
2023/02/08 11:00:15;;;;;;;19.17;12.27;;;19.50;45.90;;;;;;5028765;28;20029;-38
2023/02/08 11:02:41;;;;;;;17.15;11.60;;;19.10;45.60;;;;;;5047875;28;20493;-38
2023/02/08 11:05:13;;;;;;;13.75;10.45;;;19.80;43.50;;;;;;5056972;28;20025;-38
2023/02/08 11:07:40;;;;;;;15.13;11.30;;;20.70;40.70;;;;;;5052352;28;20034;-38
2023/02/08 11:10:17;;;;;;;16.83;11.40;;;20.00;44.10;;;;;;5054014;28;20078;-38
2023/02/08 11:13:05;;;;;;;21.65;12.70;;;20.60;41.30;;;;;;5065844;28;20342;-38
2023/02/08 11:15:51;;;;;;;14.70;11.38;;;20.40;41.20;;;;;;5068128;28;20028;-39
2023/02/08 11:18:27;;;;;;;16.23;11.73;;;19.70;41.70;;;;;;5068116;28;20390;-38
2023/02/08 11:20:57;;;;;;;15.52;11.15;;;18.50;41.50;;;;;;5068246;28;20067;-38
2023/02/08 11:23:27;;;;;;;17.55;11.98;;;18.30;44.60;;;;;;5067027;28;20077;-38
2023/02/08 11:25:55;;;;;;;15.52;10.10;;;17.80;45.20;;;;;;5068026;28;20074;-39
2023/02/08 11:28:28;;;;;;;20.42;11.88;;;18.50;43.70;;;;;;5068024;28;20021;-38
2023/02/08 11:31:07;;;;;;;16.15;10.93;;;18.30;44.00;;;;;;5067002;28;20053;-38
2023/02/08 11:33:32;;;;;;;14.25;11.05;;;19.70;43.10;;;;;;5058038;28;20788;-38
2023/02/08 11:36:02;;;;;;;16.45;10.95;;;20.00;41.00;;;;;;5061098;28;20082;-38
2023/02/08 11:38:28;;;;;;;19.10;11.25;;;19.30;42.50;;;;;;5066931;28;20021;-38
2023/02/08 11:40:57;;;;;;;14.88;11.52;;;19.50;42.50;;;;;;5053865;28;20033;-38
2023/02/08 11:43:29;;;;;;;16.67;11.43;;;19.10;42.70;;;;;;5048351;28;20024;-39
2023/02/08 11:45:56;;;;;;;18.55;11.38;;;18.90;44.00;;;;;;5047406;28;20048;-38
2023/02/08 11:48:48;;;;;;;15.75;11.05;;;18.00;44.40;;;;;;5046485;28;20174;-39
2023/02/08 11:51:36;;;;;;;13.05;10.13;;;18.90;43.80;;;;;;5048011;28;20514;-39
2023/02/08 11:54:03;;;;;;;17.38;10.48;;;18.60;41.50;;;;;;5048551;28;20099;-39
2023/02/08 11:56:31;;;;;;;14.73;10.32;;;18.20;44.90;;;;;;5046151;28;20401;-43
2023/02/08 11:59:03;;;;;;;12.95;9.90;;;18.80;43.10;;;;;;5047688;28;20060;-39
2023/02/08 12:01:32;;;;;;;16.00;10.70;;;18.80;43.20;;;;;;5048016;28;20021;-38
2023/02/08 12:04:01;;;;;;;18.60;11.30;;;19.10;43.00;;;;;;5056087;28;20067;-38
2023/02/08 12:06:32;;;;;;;16.42;10.48;;;19.30;42.80;;;;;;5065883;28;20025;-39
2023/02/08 12:09:22;;;;;;;19.17;11.00;;;18.50;41.80;;;;;;5067825;28;20478;-38
2023/02/08 12:11:54;;;;;;;17.30;11.55;;;16.30;45.20;;;;;;5040896;28;20033;-38
2023/02/08 12:14:26;;;;;;;17.02;11.15;;;15.30;46.40;;;;;;5047871;28;20078;-38
2023/02/08 12:16:51;;;;;;;18.05;10.75;;;15.60;48.30;;;;;;5047256;28;20036;-38
2023/02/08 12:19:57;;;;;;;16.92;11.55;;;16.10;47.50;;;;;;5048946;28;20386;-38
2023/02/08 12:22:25;;;;;;;16.25;11.85;;;16.90;45.00;;;;;;5051560;28;20091;-38
2023/02/08 12:25:09;;;;;;;19.25;13.32;;;18.00;44.00;;;;;;5051033;28;20047;-39
2023/02/08 12:27:40;;;;;;;19.02;12.73;;;16.90;44.50;;;;;;5050624;28;20056;-38
2023/02/08 12:30:15;;;;;;;18.85;11.88;;;16.90;45.30;;;;;;5050788;28;20528;-38
2023/02/08 12:32:40;;;;;;;18.92;13.73;;;17.20;45.20;;;;;;5050710;28;20028;-38
2023/02/08 12:35:41;;;;;;;23.17;15.27;;;16.90;44.90;;;;;;5050715;28;20021;-38